Time;durP1;ratioP1;P1;durP2;ratioP2;P2;SDS_P1;SDS_P2;PMS_P1;PMS_P2;Temp;Humidity;BMP_temperature;BMP_pressure;BME280_temperature;BME280_humidity;BME280_pressure;Samples;Min_cycle;Max_cycle;Signal;HPM_P1;HPM_P2
2022/05/11 00:01:26;;;;;;;5.40;4.90;;;;;;;20.88;52.11;97231.41;4930993;28;20708;-80
2022/05/11 00:04:01;;;;;;;4.68;4.28;;;;;;;20.86;52.07;97215.81;4934919;28;20276;-78
2022/05/11 00:06:27;;;;;;;5.03;4.30;;;;;;;20.85;52.07;97221.44;4911027;28;20319;-79
2022/05/11 00:08:54;;;;;;;4.57;4.18;;;;;;;20.82;52.38;97222.03;4904367;28;20296;-78
2022/05/11 00:11:19;;;;;;;4.20;3.80;;;;;;;20.75;52.25;97212.72;4942552;28;20176;-79
2022/05/11 00:13:45;;;;;;;4.88;4.35;;;;;;;20.73;52.18;97214.09;4935412;28;20217;-78
2022/05/11 00:16:11;;;;;;;6.35;4.63;;;;;;;20.70;52.29;97218.16;4932205;28;20216;-79
2022/05/11 00:18:38;;;;;;;5.10;4.70;;;;;;;20.68;52.36;97215.03;4928594;28;20243;-80
2022/05/11 00:21:03;;;;;;;4.80;4.40;;;;;;;20.68;52.39;97214.25;4939834;28;20301;-79
2022/05/11 00:23:29;;;;;;;5.75;4.50;;;;;;;20.65;52.59;97218.28;4919917;28;20783;-78
2022/05/11 00:25:54;;;;;;;4.97;4.53;;;;;;;20.54;52.75;97214.34;4923697;28;20201;-79
2022/05/11 00:28:20;;;;;;;5.28;4.78;;;;;;;20.55;52.86;97218.56;4910848;28;20260;-79
2022/05/11 00:30:45;;;;;;;4.65;4.25;;;;;;;20.49;53.23;97214.47;4928290;28;20315;-79
2022/05/11 00:33:13;;;;;;;6.63;4.82;;;;;;;20.44;53.29;97209.34;4927228;28;20298;-78
2022/05/11 00:35:41;;;;;;;4.32;3.92;;;;;;;20.38;53.14;97212.13;4930217;28;20197;-78
2022/05/11 00:38:07;;;;;;;5.18;4.38;;;;;;;20.35;53.19;97204.81;4939387;28;20722;-78
2022/05/11 00:40:39;;;;;;;4.30;3.90;;;;;;;20.21;53.46;97204.91;4901061;28;20194;-79
2022/05/11 00:43:04;;;;;;;5.13;4.63;;;;;;;20.37;53.33;97207.94;4939670;28;20205;-79
2022/05/11 00:45:30;;;;;;;4.85;4.25;;;;;;;20.35;53.31;97207.44;4921026;28;20191;-79
2022/05/11 00:48:01;;;;;;;4.70;4.30;;;;;;;20.30;53.47;97210.22;4911480;28;20799;-78
2022/05/11 00:50:33;;;;;;;5.05;4.57;;;;;;;20.18;53.67;97207.41;4937892;28;20661;-79
2022/05/11 00:53:09;;;;;;;6.07;4.57;;;;;;;20.20;53.70;97202.56;4929538;28;20190;-80
2022/05/11 00:55:36;;;;;;;5.13;4.22;;;;;;;20.27;53.42;97200.28;4930204;28;20200;-79
2022/05/11 00:58:11;;;;;;;4.93;4.40;;;;;;;20.02;53.97;97197.22;4905277;28;20562;-78
2022/05/11 01:00:37;;;;;;;5.00;4.50;;;;;;;20.16;53.78;97188.41;4944165;28;20196;-79
2022/05/11 01:03:07;;;;;;;5.22;4.80;;;;;;;20.09;53.80;97191.50;4923205;28;20697;-78
2022/05/11 01:05:32;;;;;;;4.85;4.20;;;;;;;20.10;53.88;97189.63;4917417;28;20245;-78
2022/05/11 01:07:58;;;;;;;5.90;4.20;;;;;;;20.08;53.83;97186.53;4914226;28;20154;-80
2022/05/11 01:10:29;;;;;;;5.00;4.50;;;;;;;19.92;54.13;97191.44;4950321;28;20329;-79
2022/05/11 01:12:57;;;;;;;4.80;4.38;;;;;;;20.00;53.86;97194.13;4914271;28;20205;-78
2022/05/11 01:15:23;;;;;;;4.85;4.35;;;;;;;20.12;53.90;97187.50;4929263;28;20235;-79
2022/05/11 01:17:48;;;;;;;4.28;3.88;;;;;;;20.07;53.81;97191.03;4928578;28;20571;-79
2022/05/11 01:20:20;;;;;;;5.05;4.00;;;;;;;19.89;53.79;97179.59;4929722;28;20201;-78
2022/05/11 01:23:00;;;;;;;4.65;4.25;;;;;;;19.92;54.04;97181.63;4931094;28;20263;-79
2022/05/11 01:25:26;;;;;;;6.13;4.80;;;;;;;19.95;54.02;97186.31;4928838;28;20385;-78
2022/05/11 01:28:05;;;;;;;5.22;4.30;;;;;;;19.81;54.32;97185.66;4937238;28;20231;-79
2022/05/11 01:30:31;;;;;;;5.13;4.32;;;;;;;19.93;54.08;97177.94;4933692;28;20276;-79
2022/05/11 01:32:57;;;;;;;4.93;4.53;;;;;;;20.01;54.21;97184.31;4919295;28;20289;-79
2022/05/11 01:35:41;;;;;;;4.95;4.45;;;;;;;19.96;54.57;97177.31;4930320;28;20204;-80
2022/05/11 01:38:06;;;;;;;4.88;4.38;;;;;;;19.94;54.39;97182.09;4947901;28;20204;-79
2022/05/11 01:40:32;;;;;;;5.03;3.95;;;;;;;19.92;54.15;97180.88;4950811;28;20200;-80
2022/05/11 01:42:57;;;;;;;4.95;4.53;;;;;;;19.86;54.19;97171.50;4916334;28;20192;-79
2022/05/11 01:45:22;;;;;;;5.15;4.30;;;;;;;19.92;54.16;97173.72;4921484;28;20228;-79
2022/05/11 01:47:48;;;;;;;5.05;4.53;;;;;;;19.93;54.21;97177.94;4930860;28;20735;-79
2022/05/11 01:50:13;;;;;;;5.40;4.07;;;;;;;19.89;54.23;97165.63;4925733;28;20181;-79
2022/05/11 01:52:39;;;;;;;5.20;4.75;;;;;;;19.86;54.30;97166.22;4930938;28;20174;-79
2022/05/11 01:55:05;;;;;;;4.63;4.22;;;;;;;19.80;54.33;97168.22;4950457;28;20560;-79
2022/05/11 01:57:32;;;;;;;5.63;5.00;;;;;;;19.69;54.48;97164.25;4921716;28;20287;-80
2022/05/11 01:59:58;;;;;;;4.82;4.25;;;;;;;19.76;54.54;97162.78;4943641;28;20204;-79
2022/05/11 02:02:28;;;;;;;5.03;4.53;;;;;;;19.71;54.75;97170.81;4927107;28;20199;-79
2022/05/11 02:07:52;;;;;;;4.80;4.40;;;;;;;19.68;54.70;97162.72;4939954;28;20186;-79
2022/05/11 02:10:22;;;;;;;5.53;5.03;;;;;;;19.65;54.61;97170.16;4950793;28;20174;-79
2022/05/11 02:12:48;;;;;;;5.32;4.75;;;;;;;19.64;54.74;97165.94;4928387;28;20743;-79
2022/05/11 02:15:14;;;;;;;4.75;4.35;;;;;;;19.63;54.64;97167.03;4945120;28;20204;-79
2022/05/11 02:17:41;;;;;;;4.53;4.15;;;;;;;19.62;54.68;97173.41;4918951;28;20683;-79
2022/05/11 02:20:07;;;;;;;4.82;4.38;;;;;;;19.64;54.72;97171.22;4915412;28;20283;-79
2022/05/11 02:22:32;;;;;;;5.03;4.55;;;;;;;19.64;54.56;97167.81;4936815;28;20371;-79
2022/05/11 02:24:58;;;;;;;4.97;4.50;;;;;;;19.61;54.72;97171.06;4941582;28;20188;-79
2022/05/11 02:27:23;;;;;;;5.03;4.53;;;;;;;19.60;54.51;97158.94;4918167;28;20187;-79
2022/05/11 02:29:49;;;;;;;5.50;4.70;;;;;;;19.61;54.41;97157.84;4928258;28;20562;-79
2022/05/11 02:32:15;;;;;;;4.32;3.92;;;;;;;19.64;54.43;97170.47;4929581;28;20269;-79
2022/05/11 02:37:24;;;;;;;4.85;4.00;;;;;;;19.61;54.67;97171.06;4921251;28;20214;-79
2022/05/11 02:39:49;;;;;;;4.78;4.30;;;;;;;19.55;54.64;97170.41;4936191;28;20331;-79
2022/05/11 02:42:16;;;;;;;4.80;4.35;;;;;;;19.52;54.71;97163.09;4928050;28;20198;-79
2022/05/11 02:44:41;;;;;;;5.22;4.20;;;;;;;19.53;54.69;97167.28;4931959;28;20197;-80
2022/05/11 02:47:06;;;;;;;4.80;4.22;;;;;;;19.50;54.94;97159.97;4939406;28;20225;-79
2022/05/11 02:49:32;;;;;;;4.82;4.32;;;;;;;19.51;54.80;97160.75;4956445;28;20191;-79
2022/05/11 02:51:58;;;;;;;4.85;4.25;;;;;;;19.48;54.90;97164.75;4945135;28;20242;-80
2022/05/11 02:54:24;;;;;;;4.60;4.20;;;;;;;19.43;55.08;97160.41;4928111;28;20694;-79
2022/05/11 02:56:49;;;;;;;4.70;4.28;;;;;;;19.50;54.80;97167.09;4947182;28;20261;-79
2022/05/11 02:59:15;;;;;;;4.88;4.38;;;;;;;19.47;54.80;97155.31;4910573;28;20304;-79
2022/05/11 03:01:41;;;;;;;4.80;4.32;;;;;;;19.44;54.90;97153.25;4917986;28;20201;-79
2022/05/11 03:04:06;;;;;;;4.70;4.30;;;;;;;19.45;54.58;97152.19;4929825;28;20716;-79
2022/05/11 03:06:31;;;;;;;5.25;4.40;;;;;;;19.42;54.83;97152.78;4939975;28;20110;-79
2022/05/11 03:08:57;;;;;;;5.38;4.90;;;;;;;19.39;54.93;97151.50;4918540;28;20246;-79
2022/05/11 03:11:22;;;;;;;4.60;4.20;;;;;;;19.42;54.67;97155.44;4946450;28;20713;-79
2022/05/11 03:13:48;;;;;;;4.75;4.35;;;;;;;19.42;54.90;97158.06;4934736;28;20294;-78
2022/05/11 03:16:13;;;;;;;4.30;3.90;;;;;;;19.40;54.41;97149.69;4926933;28;20668;-79
2022/05/11 03:18:39;;;;;;;5.65;4.13;;;;;;;19.37;54.84;97145.00;4919378;28;20088;-79
2022/05/11 03:21:04;;;;;;;4.95;4.55;;;;;;;19.40;54.88;97149.69;4913678;28;20290;-79
2022/05/11 03:23:30;;;;;;;5.63;4.40;;;;;;;19.43;54.52;97146.41;4927053;28;20210;-79
2022/05/11 03:25:56;;;;;;;5.13;4.43;;;;;;;19.41;54.66;97145.94;4927308;28;20249;-79
2022/05/11 03:28:22;;;;;;;4.93;4.43;;;;;;;19.43;54.29;97138.47;4926749;28;20260;-81
2022/05/11 03:30:47;;;;;;;5.45;4.95;;;;;;;19.47;54.49;97134.19;4918910;28;20654;-80
2022/05/11 03:35:57;;;;;;;4.55;4.15;;;;;;;19.52;54.08;97141.16;4930945;28;20669;-79
2022/05/11 03:38:22;;;;;;;4.25;3.83;;;;;;;19.54;54.06;97139.78;4945428;28;20108;-80
2022/05/11 03:40:47;;;;;;;4.55;4.15;;;;;;;19.55;54.01;97141.38;4944771;28;20309;-79
2022/05/11 03:43:13;;;;;;;4.80;4.35;;;;;;;19.52;53.89;97141.97;4912829;28;20196;-80
2022/05/11 03:45:38;;;;;;;4.75;4.18;;;;;;;19.54;54.07;97139.03;4926238;28;20625;-79
2022/05/11 03:48:04;;;;;;;4.88;4.43;;;;;;;19.61;53.59;97136.72;4929776;28;20189;-79
2022/05/11 03:50:30;;;;;;;5.28;4.30;;;;;;;19.56;53.62;97137.63;4933650;28;20683;-80
2022/05/11 03:52:56;;;;;;;4.50;4.10;;;;;;;19.55;53.77;97136.09;4919722;28;20212;-79
2022/05/11 03:55:23;;;;;;;5.63;3.85;;;;;;;19.54;53.88;97137.16;4935680;28;20214;-79
2022/05/11 03:57:52;;;;;;;4.50;4.10;;;;;;;19.55;53.76;97140.56;4952753;28;20592;-79
2022/05/11 04:00:21;;;;;;;4.68;4.13;;;;;;;19.44;53.89;97138.19;4932257;28;20107;-79
2022/05/11 04:02:47;;;;;;;4.50;4.10;;;;;;;19.49;53.97;97139.94;4933013;28;20167;-79
2022/05/11 04:05:13;;;;;;;5.07;4.25;;;;;;;19.49;53.66;97132.00;4917325;28;20227;-79
2022/05/11 04:07:40;;;;;;;5.05;4.55;;;;;;;19.42;54.14;97135.06;4916650;28;20270;-80
2022/05/11 04:10:06;;;;;;;4.70;4.30;;;;;;;19.39;53.98;97132.25;4915672;28;20206;-79
2022/05/11 04:12:34;;;;;;;6.20;4.20;;;;;;;19.38;54.10;97133.34;4948346;28;20245;-79
2022/05/11 04:15:00;;;;;;;4.65;4.25;;;;;;;19.38;54.06;97135.97;4935466;28;20177;-81
2022/05/11 04:17:25;;;;;;;5.80;4.10;;;;;;;19.42;54.16;97135.06;4951198;28;20404;-79
2022/05/11 04:19:51;;;;;;;4.47;4.07;;;;;;;19.37;53.82;97129.91;4952906;28;20209;-80
2022/05/11 04:22:16;;;;;;;4.43;4.00;;;;;;;19.44;53.70;97132.91;4903348;28;20241;-79
2022/05/11 04:24:42;;;;;;;4.53;4.13;;;;;;;19.53;53.70;97127.66;4935182;28;20193;-78
2022/05/11 04:27:07;;;;;;;4.32;3.92;;;;;;;19.54;53.68;97125.81;4904082;28;20397;-79
2022/05/11 04:29:35;;;;;;;4.70;4.30;;;;;;;19.45;53.92;97120.50;4918182;28;20249;-79
2022/05/11 04:32:00;;;;;;;4.47;4.07;;;;;;;19.51;53.73;97121.91;4921267;28;20221;-79
2022/05/11 04:34:26;;;;;;;4.78;4.28;;;;;;;19.50;53.96;97125.66;4953565;28;20201;-79
2022/05/11 04:36:52;;;;;;;4.85;4.30;;;;;;;19.54;53.65;97123.94;4932196;28;20203;-79
2022/05/11 04:39:17;;;;;;;4.05;3.75;;;;;;;19.58;53.53;97119.63;4931301;28;20288;-80
2022/05/11 04:41:42;;;;;;;4.60;3.88;;;;;;;19.57;53.50;97112.00;4899540;28;20280;-80
2022/05/11 04:44:08;;;;;;;5.15;4.65;;;;;;;19.69;53.36;97124.63;4931394;28;20614;-81
2022/05/11 04:46:35;;;;;;;4.40;3.85;;;;;;;19.72;53.46;97118.75;4928402;28;20192;-82
2022/05/11 04:49:19;;;;;;;4.53;4.07;;;;;;;19.87;52.92;97126.28;4934819;28;20852;-79
2022/05/11 04:52:16;;;;;;;5.00;3.95;;;;;;;19.77;52.77;97129.19;4937908;28;20269;-79
2022/05/11 04:54:49;;;;;;;4.15;3.75;;;;;;;20.06;52.91;97122.63;4934727;28;20446;-79
2022/05/11 04:57:16;;;;;;;4.47;3.80;;;;;;;20.11;52.49;97119.84;4935525;28;20524;-80
2022/05/11 04:59:42;;;;;;;4.47;3.92;;;;;;;20.19;52.35;97121.72;4911786;28;20396;-79
2022/05/11 05:02:14;;;;;;;4.00;3.70;;;;;;;20.17;52.27;97135.25;4927634;28;20258;-80
2022/05/11 05:04:39;;;;;;;4.22;3.83;;;;;;;20.21;51.86;97122.19;4911267;28;20131;-81
2022/05/11 05:07:05;;;;;;;5.03;4.10;;;;;;;20.32;51.86;97125.31;4946531;28;20163;-81
2022/05/11 05:09:30;;;;;;;4.88;3.60;;;;;;;20.51;51.69;97135.59;4947533;28;20643;-78
2022/05/11 05:11:56;;;;;;;5.15;4.28;;;;;;;20.56;52.04;97130.16;4930837;28;20352;-79
2022/05/11 05:14:22;;;;;;;4.22;3.85;;;;;;;20.69;51.54;97134.56;4914132;28;20191;-79
2022/05/11 05:16:48;;;;;;;4.47;4.07;;;;;;;20.71;51.28;97135.03;4947170;28;20205;-79
2022/05/11 05:19:14;;;;;;;4.45;4.05;;;;;;;20.91;51.83;97132.84;4930375;28;20629;-79
2022/05/11 05:21:40;;;;;;;5.40;4.60;;;;;;;21.00;51.22;97135.50;4930579;28;20717;-79
2022/05/11 05:24:06;;;;;;;5.55;4.78;;;;;;;21.01;50.95;97129.88;4915164;28;20257;-81
2022/05/11 05:26:31;;;;;;;6.32;3.88;;;;;;;21.09;51.01;97129.06;4915004;28;20760;-81
2022/05/11 05:31:41;;;;;;;5.63;4.40;;;;;;;21.22;50.95;97130.00;4926754;28;20205;-79
2022/05/11 05:34:07;;;;;;;4.70;4.13;;;;;;;21.31;50.60;97130.75;4932778;28;20204;-81
2022/05/11 05:36:35;;;;;;;5.50;4.03;;;;;;;21.35;50.92;97130.91;4930597;28;20684;-78
2022/05/11 05:39:01;;;;;;;4.93;4.53;;;;;;;21.30;50.93;97137.16;4914478;28;20220;-78
2022/05/11 05:41:27;;;;;;;4.47;4.07;;;;;;;21.35;51.12;97141.50;4929883;28;20178;-79
2022/05/11 05:43:53;;;;;;;4.88;4.13;;;;;;;21.49;51.10;97141.34;4914067;28;20102;-80
2022/05/11 05:46:19;;;;;;;6.32;4.47;;;;;;;21.59;50.75;97143.66;4918166;28;20292;-79
2022/05/11 05:48:45;;;;;;;4.60;4.18;;;;;;;21.74;49.95;97137.03;4922621;28;20562;-79
2022/05/11 05:51:12;;;;;;;4.47;4.07;;;;;;;21.84;50.83;97136.69;4948831;28;20188;-79
2022/05/11 05:53:40;;;;;;;5.10;4.57;;;;;;;21.95;49.41;97133.69;4928139;28;20707;-78
2022/05/11 05:56:05;;;;;;;4.78;4.38;;;;;;;22.00;49.57;97130.84;4927430;28;20205;-78
2022/05/11 05:58:31;;;;;;;4.32;3.92;;;;;;;22.07;49.31;97134.56;4911201;28;20265;-79
2022/05/11 06:00:57;;;;;;;5.85;4.95;;;;;;;22.13;51.03;97143.13;4911336;28;20609;-78
2022/05/11 06:03:28;;;;;;;4.47;4.07;;;;;;;22.25;49.52;97132.59;4899945;28;20259;-79
2022/05/11 06:05:53;;;;;;;5.68;4.22;;;;;;;22.32;50.10;97134.00;4914208;28;20209;-82
2022/05/11 06:08:19;;;;;;;4.55;4.15;;;;;;;22.53;48.18;97137.41;4948444;28;20597;-79
2022/05/11 06:10:46;;;;;;;5.80;4.68;;;;;;;22.64;48.71;97137.84;4898016;28;20185;-79
2022/05/11 06:13:16;;;;;;;4.25;3.92;;;;;;;22.64;48.81;97137.84;4899244;28;20248;-82
2022/05/11 06:15:44;;;;;;;4.40;4.00;;;;;;;22.84;48.55;97130.19;4912155;28;20638;-78
2022/05/11 06:18:11;;;;;;;4.68;4.28;;;;;;;23.10;48.02;97135.28;4927402;28;20258;-79
2022/05/11 06:20:36;;;;;;;4.78;4.28;;;;;;;23.28;47.55;97133.25;4916421;28;20236;-79
2022/05/11 06:23:03;;;;;;;4.53;4.13;;;;;;;23.21;46.66;97136.44;4944080;28;20291;-78
2022/05/11 06:25:30;;;;;;;5.43;4.85;;;;;;;23.45;47.21;97132.28;4930909;28;20719;-79
2022/05/11 06:27:58;;;;;;;4.55;4.15;;;;;;;23.58;46.59;97136.53;4930619;28;20773;-79
2022/05/11 06:30:27;;;;;;;4.97;4.43;;;;;;;23.83;46.18;97137.34;4930894;28;20283;-79
2022/05/11 06:32:53;;;;;;;4.53;4.13;;;;;;;23.98;45.76;97135.13;4931055;28;20607;-78
2022/05/11 06:35:19;;;;;;;5.13;4.43;;;;;;;24.17;45.45;97137.22;4928017;28;20099;-78
2022/05/11 06:37:44;;;;;;;5.47;4.70;;;;;;;24.39;45.12;97133.31;4929096;28;20174;-78
2022/05/11 06:40:11;;;;;;;5.07;4.60;;;;;;;24.47;45.13;97135.06;4947971;28;20178;-80
2022/05/11 06:42:37;;;;;;;5.20;4.70;;;;;;;24.75;44.30;97123.72;4930812;28;20373;-79
2022/05/11 06:45:05;;;;;;;5.20;4.70;;;;;;;24.78;44.40;97125.69;4947239;28;20742;-78
2022/05/11 06:47:31;;;;;;;4.97;4.57;;;;;;;25.11;45.06;97128.09;4946420;28;20254;-79
2022/05/11 06:49:56;;;;;;;4.85;4.40;;;;;;;25.11;43.54;97133.44;4947015;28;20338;-79
2022/05/11 06:52:22;;;;;;;4.95;4.45;;;;;;;25.35;43.18;97127.22;4930154;28;20204;-78
2022/05/11 07:00:15;;;;;;;4.63;4.22;;;;;;;25.76;42.09;97124.41;4947097;28;20710;-79
2022/05/11 07:02:41;;;;;;;5.05;4.57;;;;;;;25.84;42.55;97120.81;4929831;28;20236;-79
2022/05/11 07:05:08;;;;;;;4.25;3.95;;;;;;;26.00;42.25;97122.72;4947380;28;20309;-82
2022/05/11 07:07:33;;;;;;;4.93;3.80;;;;;;;26.21;41.30;97120.50;4914340;28;20374;-79
2022/05/11 07:09:59;;;;;;;4.03;3.72;;;;;;;26.47;40.81;97124.47;4902713;28;20337;-79
2022/05/11 07:12:32;;;;;;;4.50;4.10;;;;;;;26.53;42.00;97125.75;4910191;28;20213;-82
2022/05/11 07:14:58;;;;;;;5.20;4.15;;;;;;;26.68;39.65;97122.28;4911396;28;20250;-79
2022/05/11 07:17:34;;;;;;;4.72;4.43;;;;;;;26.55;41.48;97120.81;4930148;28;20185;-79
2022/05/11 07:20:21;;;;;;;4.80;4.40;;;;;;;26.46;40.33;97122.91;4943806;28;20162;-79
2022/05/11 07:22:46;;;;;;;4.40;4.03;;;;;;;26.95;38.87;97122.38;4929374;28;20283;-79
2022/05/11 07:25:14;;;;;;;4.45;4.05;;;;;;;26.93;38.65;97113.19;4923347;28;20234;-80
2022/05/11 07:27:42;;;;;;;4.22;3.90;;;;;;;26.85;38.85;97113.06;4905993;28;20240;-80
2022/05/11 07:30:09;;;;;;;4.60;4.18;;;;;;;27.05;39.15;97119.16;4927307;28;20305;-79
2022/05/11 07:32:35;;;;;;;4.25;3.95;;;;;;;27.30;38.87;97113.50;4919878;28;20235;-79
2022/05/11 07:35:00;;;;;;;4.47;4.18;;;;;;;27.36;39.42;97117.41;4909141;28;20163;-80
2022/05/11 07:37:26;;;;;;;5.40;4.90;;;;;;;27.54;39.54;97124.97;4913910;28;20220;-80
2022/05/11 07:39:52;;;;;;;4.10;3.70;;;;;;;27.58;37.43;97121.22;4936139;28;20274;-80
2022/05/11 07:42:18;;;;;;;4.65;4.25;;;;;;;27.89;38.29;97118.66;4951986;28;20117;-79
2022/05/11 07:44:43;;;;;;;4.72;4.28;;;;;;;27.54;38.95;97119.63;4934249;28;20312;-83
2022/05/11 07:47:12;;;;;;;4.75;4.45;;;;;;;27.82;38.64;97124.66;4934242;28;20315;-79
2022/05/11 07:49:38;;;;;;;4.45;4.03;;;;;;;28.03;36.73;97116.19;4944210;28;20655;-78
2022/05/11 07:52:05;;;;;;;4.47;4.07;;;;;;;27.93;37.93;97104.22;4932389;28;20259;-78
2022/05/11 07:54:31;;;;;;;4.07;3.78;;;;;;;28.18;37.47;97115.25;4929005;28;20204;-79
2022/05/11 07:59:57;;;;;;;4.00;3.70;;;;;;;28.17;36.80;97112.94;4937846;28;20179;-81
2022/05/11 08:02:33;;;;;;;6.38;4.20;;;;;;;28.19;37.53;97119.50;4899037;28;20648;-78
2022/05/11 08:05:02;;;;;;;4.10;3.80;;;;;;;28.15;38.26;97110.63;4931503;28;20127;-81
2022/05/11 08:07:39;;;;;;;4.05;3.75;;;;;;;28.14;36.97;97119.81;4931942;28;20196;-79
2022/05/11 08:10:06;;;;;;;4.85;4.10;;;;;;;28.52;36.93;97106.53;4932867;28;20133;-81
2022/05/11 08:12:31;;;;;;;4.10;3.80;;;;;;;28.74;36.42;97099.53;4931666;28;20298;-79
2022/05/11 08:14:57;;;;;;;4.15;3.85;;;;;;;28.82;36.08;97111.09;4915725;28;20273;-78
2022/05/11 08:17:32;;;;;;;4.20;3.80;;;;;;;28.84;36.00;97101.56;4948793;28;20314;-80
2022/05/11 08:19:59;;;;;;;4.32;4.03;;;;;;;29.29;34.52;97109.69;4948445;28;20513;-77
2022/05/11 08:22:26;;;;;;;4.13;3.83;;;;;;;29.41;35.70;97101.38;4932834;28;20264;-80
2022/05/11 08:24:53;;;;;;;4.30;4.00;;;;;;;29.85;34.29;97103.28;4948842;28;20217;-78
2022/05/11 08:27:23;;;;;;;4.55;4.15;;;;;;;29.79;34.30;97098.63;4930285;28;20033;-77
2022/05/11 08:35:18;;;;;;;4.32;3.90;;;;;;;30.01;33.51;97092.25;4922039;28;20205;-80
2022/05/11 08:37:43;;;;;;;4.18;3.78;;;;;;;30.13;33.67;97095.78;4922445;28;20230;-79
2022/05/11 08:40:17;;;;;;;3.90;3.60;;;;;;;29.98;33.86;97086.84;4917324;28;20251;-78
2022/05/11 08:42:43;;;;;;;;;;;;;;;29.89;33.36;97095.25;4933147;28;20245;-77
2022/05/11 08:45:09;;;;;;;3.88;3.58;;;;;;;30.32;33.17;97097.41;4917381;28;20633;-78
2022/05/11 08:47:48;;;;;;;3.97;3.60;;;;;;;30.05;33.01;97093.03;4932841;28;20650;-78
2022/05/11 08:50:19;;;;;;;3.80;3.50;;;;;;;30.21;31.64;97086.59;4893041;28;20379;-79
2022/05/11 08:53:04;;;;;;;3.70;3.40;;;;;;;30.01;33.31;97094.94;4929042;28;20315;-77
2022/05/11 08:55:53;;;;;;;4.47;4.18;;;;;;;30.33;33.64;97094.34;4914971;28;20026;-79
2022/05/11 08:58:36;;;;;;;4.18;3.40;;;;;;;30.36;32.73;97087.47;4954603;28;20153;-82
2022/05/11 09:01:03;;;;;;;4.25;3.85;;;;;;;30.77;32.19;97087.22;4956331;28;20682;-79
2022/05/11 09:03:41;;;;;;;3.65;3.30;;;;;;;30.67;31.47;97075.28;4921471;28;20013;-79
2022/05/11 09:06:17;;;;;;;5.28;3.10;;;;;;;30.62;32.02;97086.41;4938057;28;20034;-78
2022/05/11 09:08:43;;;;;;;4.22;3.92;;;;;;;31.13;31.52;97090.78;4937256;28;20028;-78
2022/05/11 09:11:13;;;;;;;3.75;3.45;;;;;;;31.18;30.92;97074.25;4921010;28;20025;-79
2022/05/11 09:13:42;;;;;;;3.53;3.33;;;;;;;31.06;32.58;97084.63;4921393;28;20096;-78
2022/05/11 09:16:24;;;;;;;4.22;3.53;;;;;;;31.16;31.27;97083.88;4936553;28;20101;-78
2022/05/11 09:18:49;;;;;;;3.45;3.25;;;;;;;31.13;32.56;97079.25;4936170;28;20028;-78
2022/05/11 09:21:29;;;;;;;3.95;3.22;;;;;;;31.13;32.83;97080.00;4923523;28;20631;-78
2022/05/11 09:24:12;;;;;;;4.28;3.88;;;;;;;31.43;30.64;97076.22;4937498;28;20036;-78
2022/05/11 09:26:44;;;;;;;4.10;3.70;;;;;;;31.51;31.61;97075.09;4936221;28;20104;-77
2022/05/11 09:29:19;;;;;;;4.63;3.60;;;;;;;31.72;31.02;97071.59;4937216;28;20029;-78
2022/05/11 09:31:45;;;;;;;4.35;3.78;;;;;;;31.44;30.09;97075.03;4927636;28;20033;-79
2022/05/11 09:34:14;;;;;;;4.18;3.63;;;;;;;31.62;29.12;97066.22;4918213;28;20072;-78
2022/05/11 09:37:12;;;;;;;3.95;3.53;;;;;;;31.52;30.18;97065.84;4917292;28;20020;-77
2022/05/11 09:39:51;;;;;;;3.97;3.30;;;;;;;31.89;30.72;97058.47;4926366;28;20068;-76
2022/05/11 09:42:19;;;;;;;4.05;3.63;;;;;;;32.09;31.38;97061.53;4929376;28;20119;-76
2022/05/11 09:44:48;;;;;;;4.18;3.58;;;;;;;32.31;29.66;97056.84;4934695;28;20021;-76
2022/05/11 09:47:27;;;;;;;3.95;3.65;;;;;;;32.15;29.74;97061.91;4950500;28;20029;-76
2022/05/11 09:49:53;;;;;;;3.90;3.50;;;;;;;32.22;29.25;97053.81;4933455;28;20030;-76
2022/05/11 09:52:31;;;;;;;4.32;3.60;;;;;;;31.81;30.05;97056.97;4951717;28;20807;-75
2022/05/11 09:54:57;;;;;;;3.97;3.65;;;;;;;32.07;30.45;97055.78;4922096;28;20021;-76
2022/05/11 09:57:27;;;;;;;3.63;3.42;;;;;;;32.10;28.63;97052.31;4949700;28;20883;-76
2022/05/11 10:00:14;;;;;;;4.22;3.25;;;;;;;31.79;31.29;97046.59;4918220;28;20033;-75
2022/05/11 10:02:42;;;;;;;3.60;3.30;;;;;;;31.88;29.00;97044.25;4920734;28;20045;-75
2022/05/11 10:05:18;;;;;;;4.65;3.40;;;;;;;31.97;27.37;97043.09;4931521;28;20022;-77
2022/05/11 10:08:01;;;;;;;4.45;3.53;;;;;;;31.98;28.55;97044.59;4915409;28;20033;-75
2022/05/11 10:10:48;;;;;;;3.45;3.25;;;;;;;32.16;30.34;97039.19;4924353;28;20030;-76
2022/05/11 10:13:23;;;;;;;3.40;3.10;;;;;;;32.29;28.67;97043.75;4950362;28;20781;-75
2022/05/11 10:22:14;;;;;;;9.40;3.30;;;;;;;31.99;28.42;97027.28;4933002;28;20061;-76
2022/05/11 10:25:35;;;;;;;3.15;2.95;;;;;;;32.39;29.02;97028.72;4951255;28;20029;-79
2022/05/11 10:28:28;;;;;;;5.20;3.88;;;;;;;31.72;30.13;97023.13;4879718;28;20033;-77
2022/05/11 10:31:02;;;;;;;3.47;3.15;;;;;;;32.28;29.09;97036.81;4945373;28;20155;-76
2022/05/11 10:34:05;;;;;;;3.80;3.42;;;;;;;32.62;29.03;97017.44;4952857;28;20813;-78
2022/05/11 10:36:40;;;;;;;3.28;3.08;;;;;;;32.46;29.35;97025.22;4918666;28;20233;-77
2022/05/11 10:39:37;;;;;;;4.22;3.75;;;;;;;32.02;28.10;97008.44;4934613;28;20029;-76
2022/05/11 10:42:12;;;;;;;3.15;2.95;;;;;;;32.15;31.90;97024.97;4904610;28;20037;-77
2022/05/11 10:45:08;;;;;;;4.13;3.58;;;;;;;32.69;28.28;97016.63;4935779;28;20025;-77
2022/05/11 10:47:55;;;;;;;3.15;2.95;;;;;;;33.04;29.72;97022.97;4950248;28;20099;-76
2022/05/11 10:50:28;;;;;;;3.72;3.03;;;;;;;32.89;27.39;97021.53;4934825;28;20115;-77
2022/05/11 10:53:41;;;;;;;2.92;2.72;;;;;;;32.40;26.52;97021.38;4919882;28;20175;-78
2022/05/11 10:56:25;;;;;;;3.67;2.90;;;;;;;32.48;26.27;97007.47;4913694;28;20030;-78
2022/05/11 10:59:06;;;;;;;3.25;2.97;;;;;;;32.71;27.79;97008.91;4954071;28;20754;-77
2022/05/11 11:01:51;;;;;;;3.33;3.00;;;;;;;32.47;26.15;97002.47;4921022;28;20301;-77
2022/05/11 11:04:31;;;;;;;4.30;3.17;;;;;;;32.45;26.80;96991.34;4953688;28;20072;-77
2022/05/11 11:07:13;;;;;;;3.35;2.80;;;;;;;32.53;28.66;97006.31;4954754;28;20041;-77
2022/05/11 11:09:57;;;;;;;3.25;3.05;;;;;;;32.75;26.48;97001.59;4916876;28;20746;-77
2022/05/11 11:12:41;;;;;;;3.30;3.10;;;;;;;32.60;29.52;96986.63;4947698;28;20657;-76
2022/05/11 11:15:14;;;;;;;3.13;2.83;;;;;;;32.81;28.11;96991.91;4951512;28;20029;-77
2022/05/11 11:17:42;;;;;;;3.50;3.15;;;;;;;32.67;27.34;96994.69;4927100;28;20205;-77
2022/05/11 11:20:09;;;;;;;3.25;2.95;;;;;;;32.18;26.91;96991.84;4899265;28;20068;-76
2022/05/11 11:23:20;;;;;;;2.75;2.55;;;;;;;32.02;26.72;96999.59;4914600;28;20021;-76
2022/05/11 11:25:54;;;;;;;3.28;3.08;;;;;;;31.82;27.50;96996.56;4896550;28;20129;-76
2022/05/11 11:28:22;;;;;;;4.75;3.10;;;;;;;31.58;27.48;96990.09;4934526;28;20141;-77
2022/05/11 11:31:12;;;;;;;5.10;4.50;;;;;;;31.43;25.21;96984.72;4934750;28;20110;-77
2022/05/11 11:34:00;;;;;;;5.03;4.03;;;;;;;30.76;27.42;96984.31;4946327;28;20037;-77
2022/05/11 11:36:31;;;;;;;5.10;4.57;;;;;;;31.28;26.34;96983.97;4938923;28;20072;-77
2022/05/11 11:38:59;;;;;;;4.28;3.83;;;;;;;30.87;28.90;96983.56;4932758;28;20051;-76
2022/05/11 11:41:28;;;;;;;3.78;3.05;;;;;;;31.15;28.70;96967.47;4932503;28;20267;-76
2022/05/11 11:43:57;;;;;;;15.80;3.80;;;;;;;31.19;30.28;96978.22;4936048;28;20769;-77
2022/05/11 11:46:34;;;;;;;3.33;3.13;;;;;;;31.09;29.25;96984.38;4953793;28;20746;-78
2022/05/11 11:49:16;;;;;;;3.05;2.83;;;;;;;31.47;29.27;96974.72;4918980;28;20087;-78
2022/05/11 11:51:50;;;;;;;4.47;3.25;;;;;;;31.81;27.30;96971.59;4952290;28;20234;-77
2022/05/11 11:54:46;;;;;;;4.05;3.03;;;;;;;32.12;27.04;96979.19;4951585;28;20091;-77
2022/05/11 11:57:14;;;;;;;3.25;3.00;;;;;;;32.51;26.36;96967.41;4905607;28;20033;-76
2022/05/11 11:59:44;;;;;;;3.72;3.40;;;;;;;32.34;28.42;96972.53;4946828;28;20097;-77
2022/05/11 12:02:10;;;;;;;3.30;3.08;;;;;;;32.53;27.58;96976.66;4945789;28;20659;-76
2022/05/11 12:04:58;;;;;;;3.42;3.13;;;;;;;32.39;26.73;96971.34;4935223;28;20057;-78
2022/05/11 12:16:10;;;;;;;3.53;3.17;;;;;;;31.51;25.54;96955.88;4937829;28;20025;-77
2022/05/11 12:18:38;;;;;;;4.73;3.27;;;;;;;31.07;26.80;96944.41;4949696;28;20755;-77
2022/05/11 12:21:07;;;;;;;3.28;2.97;;;;;;;31.12;26.62;96946.72;4921000;28;20284;-75
2022/05/11 12:23:36;;;;;;;4.68;3.10;;;;;;;31.09;27.50;96944.78;4935586;28;20045;-75
2022/05/11 12:26:08;;;;;;;3.83;3.00;;;;;;;30.48;27.82;96933.22;4933707;28;20032;-77
2022/05/11 12:28:40;;;;;;;3.50;3.10;;;;;;;30.57;27.36;96941.66;4937460;28;20740;-77